Time;durP1;ratioP1;P1;durP2;ratioP2;P2;SDS_P1;SDS_P2;PMS_P1;PMS_P2;Temp;Humidity;BMP_temperature;BMP_pressure;BME280_temperature;BME280_humidity;BME280_pressure;Samples;Min_cycle;Max_cycle;Signal;HPM_P1;HPM_P2
2023/11/03 00:00:12;;;;;;;2.37;2.07;;;4.80;99.90;;;;;;5055631;28;20380;-58
2023/11/03 00:02:39;;;;;;;4.47;2.20;;;4.80;99.90;;;;;;5059775;28;20216;-58
2023/11/03 00:05:08;;;;;;;7.73;2.87;;;4.70;99.90;;;;;;5057127;28;20448;-58
2023/11/03 00:07:35;;;;;;;8.53;2.80;;;4.70;99.90;;;;;;5057184;28;20441;-58
2023/11/03 00:10:01;;;;;;;8.50;2.33;;;4.60;99.90;;;;;;5057151;28;20443;-58
2023/11/03 00:12:27;;;;;;;4.73;3.63;;;4.60;99.90;;;;;;5051393;28;20951;-58
2023/11/03 00:14:52;;;;;;;4.70;2.77;;;4.60;99.90;;;;;;5066976;28;20428;-58
2023/11/03 00:17:18;;;;;;;4.80;2.70;;;4.50;99.90;;;;;;5064394;28;20182;-56
2023/11/03 00:19:46;;;;;;;6.70;3.03;;;4.50;99.90;;;;;;5062508;28;20166;-57
2023/11/03 00:22:12;;;;;;;1.97;1.87;;;4.50;99.90;;;;;;5063954;28;20251;-57
2023/11/03 00:24:38;;;;;;;2.10;1.80;;;4.50;99.90;;;;;;5065333;28;20428;-57
2023/11/03 00:27:04;;;;;;;10.60;2.70;;;4.50;99.90;;;;;;5066613;28;20771;-57
2023/11/03 00:29:30;;;;;;;3.97;2.83;;;4.40;99.90;;;;;;5059389;28;20429;-57
2023/11/03 00:31:56;;;;;;;4.60;2.57;;;4.40;99.90;;;;;;5057343;28;20182;-57
2023/11/03 00:34:22;;;;;;;4.40;2.83;;;4.40;99.90;;;;;;5064316;28;20436;-58
2023/11/03 00:36:49;;;;;;;6.27;2.93;;;4.40;99.90;;;;;;5061194;28;22403;-57
2023/11/03 00:39:18;;;;;;;5.37;3.50;;;4.40;99.90;;;;;;5053842;28;20461;-58
2023/11/03 00:41:49;;;;;;;5.70;4.60;;;4.50;99.90;;;;;;5053147;28;20500;-58
2023/11/03 00:44:17;;;;;;;8.97;5.47;;;4.50;99.90;;;;;;5054232;28;20432;-57
2023/11/03 00:46:43;;;;;;;39.50;6.20;;;4.50;99.90;;;;;;5052216;28;20460;-58
2023/11/03 00:49:09;;;;;;;13.90;5.00;;;4.50;99.90;;;;;;5055411;28;20413;-58
2023/11/03 00:51:36;;;;;;;12.73;5.00;;;4.50;99.90;;;;;;5054595;28;20413;-58
2023/11/03 00:54:03;;;;;;;18.53;5.10;;;4.50;99.90;;;;;;5059779;28;21113;-57
2023/11/03 00:56:29;;;;;;;26.37;5.10;;;4.50;99.90;;;;;;5061439;28;20436;-58
2023/11/03 00:58:55;;;;;;;33.40;4.77;;;4.50;99.90;;;;;;5060055;28;20456;-57
2023/11/03 01:01:21;;;;;;;5.20;3.90;;;4.50;99.90;;;;;;5059846;28;20439;-57
2023/11/03 01:03:47;;;;;;;10.37;3.10;;;4.40;99.90;;;;;;5059699;28;20697;-55
2023/11/03 01:06:13;;;;;;;6.20;3.47;;;4.40;99.90;;;;;;5060689;28;20443;-57
2023/11/03 01:08:38;;;;;;;6.40;2.80;;;4.40;99.90;;;;;;5062591;28;20533;-58
2023/11/03 01:11:07;;;;;;;4.70;2.73;;;4.30;99.90;;;;;;5060325;28;20186;-57
2023/11/03 01:13:34;;;;;;;5.00;3.00;;;4.30;99.90;;;;;;5057557;28;20721;-57
2023/11/03 01:16:00;;;;;;;3.57;2.60;;;4.30;99.90;;;;;;5059695;28;20959;-57
2023/11/03 01:18:28;;;;;;;5.27;3.37;;;4.40;99.90;;;;;;5063997;28;20449;-58
2023/11/03 01:20:57;;;;;;;4.03;3.20;;;4.30;99.90;;;;;;5055928;28;20477;-58
2023/11/03 01:23:23;;;;;;;6.77;3.50;;;4.30;99.90;;;;;;5058013;28;20583;-58
2023/11/03 01:25:50;;;;;;;9.10;3.80;;;4.30;99.90;;;;;;5059120;28;20544;-56
2023/11/03 01:28:16;;;;;;;14.83;3.80;;;4.30;99.90;;;;;;5060741;28;20205;-56
2023/11/03 01:30:43;;;;;;;18.97;5.40;;;4.30;99.90;;;;;;5053573;28;20475;-57
2023/11/03 01:33:09;;;;;;;30.83;7.50;;;4.30;99.90;;;;;;5057660;28;21947;-58
2023/11/03 01:35:36;;;;;;;33.70;7.07;;;4.20;99.90;;;;;;5066729;28;21030;-57
2023/11/03 01:38:04;;;;;;;133.23;8.27;;;4.20;99.90;;;;;;5058164;28;20692;-58
2023/11/03 01:40:30;;;;;;;21.70;5.30;;;4.20;99.90;;;;;;5062686;28;20470;-58
2023/11/03 01:42:56;;;;;;;63.60;5.87;;;4.10;99.90;;;;;;5058189;28;20432;-57
2023/11/03 01:45:22;;;;;;;37.90;6.00;;;4.10;99.90;;;;;;5058405;28;20424;-57
2023/11/03 01:47:47;;;;;;;29.93;6.00;;;4.10;99.90;;;;;;5058169;28;20427;-56
2023/11/03 01:50:15;;;;;;;5.30;3.73;;;4.10;99.90;;;;;;5058463;28;20871;-57
2023/11/03 01:52:43;;;;;;;12.23;4.70;;;4.10;99.90;;;;;;5057479;28;20274;-58
2023/11/03 01:55:10;;;;;;;29.77;4.70;;;4.10;99.90;;;;;;5060338;28;20433;-57
2023/11/03 01:57:38;;;;;;;5.47;4.20;;;4.10;99.90;;;;;;5061931;28;21209;-57
2023/11/03 02:00:04;;;;;;;56.73;6.20;;;4.10;99.90;;;;;;5060997;28;20451;-56
2023/11/03 02:02:31;;;;;;;12.07;4.50;;;4.10;99.90;;;;;;5057868;28;20930;-57
2023/11/03 02:04:57;;;;;;;9.50;5.30;;;4.10;99.90;;;;;;5064025;28;20478;-57
2023/11/03 02:07:24;;;;;;;176.70;8.90;;;4.10;99.90;;;;;;5058985;28;20432;-57
2023/11/03 02:09:50;;;;;;;77.00;9.00;;;4.10;99.90;;;;;;5057685;28;20188;-58
2023/11/03 02:12:16;;;;;;;59.13;8.50;;;4.00;99.90;;;;;;5057839;28;20421;-57
2023/11/03 02:14:42;;;;;;;111.57;10.30;;;4.00;99.90;;;;;;5058374;28;20440;-57
2023/11/03 02:17:07;;;;;;;113.67;10.47;;;4.00;99.90;;;;;;5066646;28;20273;-57
2023/11/03 02:19:34;;;;;;;67.97;9.67;;;4.00;99.90;;;;;;5064667;28;20194;-56
2023/11/03 02:22:00;;;;;;;126.40;12.03;;;4.00;99.90;;;;;;5068086;28;20185;-57
2023/11/03 02:24:25;;;;;;;49.07;9.47;;;4.00;99.90;;;;;;5065144;28;20532;-57
2023/11/03 02:26:51;;;;;;;47.57;7.77;;;4.10;99.90;;;;;;5067910;28;20179;-57
2023/11/03 02:29:18;;;;;;;28.37;7.90;;;4.10;99.90;;;;;;5067601;28;20216;-56
2023/11/03 02:31:44;;;;;;;27.30;6.87;;;4.10;99.90;;;;;;5067771;28;20235;-57
2023/11/03 02:34:10;;;;;;;36.13;6.50;;;4.10;99.90;;;;;;5067698;28;20476;-57
2023/11/03 02:36:35;;;;;;;38.73;7.37;;;4.20;99.90;;;;;;5062068;28;20460;-58
2023/11/03 02:39:01;;;;;;;36.93;7.77;;;4.20;99.90;;;;;;5063490;28;20293;-55
2023/11/03 02:41:28;;;;;;;46.53;7.40;;;4.20;99.90;;;;;;5067479;28;20190;-57
2023/11/03 02:43:53;;;;;;;17.57;6.47;;;4.20;99.90;;;;;;5064434;28;20197;-57
2023/11/03 02:46:19;;;;;;;12.33;6.10;;;4.20;99.90;;;;;;5064926;28;20428;-56
2023/11/03 02:48:45;;;;;;;13.63;5.93;;;4.20;99.90;;;;;;5063647;28;20179;-57
2023/11/03 02:51:11;;;;;;;12.47;6.20;;;4.20;99.90;;;;;;5057868;28;20273;-57
2023/11/03 02:53:37;;;;;;;10.97;6.50;;;4.20;99.90;;;;;;5053438;28;20547;-57
2023/11/03 02:56:03;;;;;;;8.17;5.43;;;4.20;99.90;;;;;;5059636;28;20187;-56
2023/11/03 02:58:36;;;;;;;15.30;5.90;;;4.30;99.90;;;;;;5053557;28;20205;-57
2023/11/03 03:01:05;;;;;;;14.73;6.17;;;4.30;99.90;;;;;;5053171;28;20977;-56
2023/11/03 03:03:30;;;;;;;15.70;6.43;;;4.30;99.90;;;;;;5057566;28;20455;-58
2023/11/03 03:05:56;;;;;;;8.80;5.60;;;4.30;99.90;;;;;;5058495;28;20429;-57
2023/11/03 03:08:21;;;;;;;18.90;6.40;;;4.30;99.90;;;;;;5059103;28;20998;-58
2023/11/03 03:10:47;;;;;;;9.00;5.70;;;4.30;99.90;;;;;;5057300;28;20184;-57
2023/11/03 03:13:13;;;;;;;10.50;5.47;;;4.30;99.90;;;;;;5057163;28;21527;-57
2023/11/03 03:15:38;;;;;;;9.17;5.63;;;4.30;99.90;;;;;;5058546;28;20181;-57
2023/11/03 03:18:04;;;;;;;15.10;6.37;;;4.30;99.90;;;;;;5059877;28;20209;-59
2023/11/03 03:20:30;;;;;;;12.33;5.83;;;4.30;99.90;;;;;;5055360;28;20180;-57
2023/11/03 03:22:55;;;;;;;9.07;5.77;;;4.20;99.90;;;;;;5061226;28;20449;-57
2023/11/03 03:25:21;;;;;;;12.80;5.50;;;4.20;99.90;;;;;;5059229;28;20173;-57
2023/11/03 03:27:47;;;;;;;12.10;5.47;;;4.10;99.90;;;;;;5067621;28;20250;-56
2023/11/03 03:30:13;;;;;;;15.10;5.60;;;4.10;99.90;;;;;;5063727;28;20177;-57
2023/11/03 03:32:38;;;;;;;9.53;5.00;;;4.10;99.90;;;;;;5058042;28;20207;-57
2023/11/03 03:35:04;;;;;;;12.03;5.90;;;4.10;99.90;;;;;;5058642;28;20425;-56
2023/11/03 03:37:30;;;;;;;8.97;5.10;;;4.10;99.90;;;;;;5056684;28;20190;-58
2023/11/03 03:39:56;;;;;;;9.20;5.30;;;4.10;99.90;;;;;;5059964;28;20959;-58
2023/11/03 03:42:24;;;;;;;17.23;5.00;;;4.10;99.90;;;;;;5057048;28;20178;-56
2023/11/03 03:44:49;;;;;;;10.10;5.40;;;4.10;99.90;;;;;;5050953;28;20515;-57
2023/11/03 03:47:15;;;;;;;7.97;5.17;;;4.10;99.90;;;;;;5062885;28;20516;-56
2023/11/03 03:49:40;;;;;;;10.03;5.30;;;4.10;99.90;;;;;;5057926;28;20240;-58
2023/11/03 03:52:07;;;;;;;10.03;4.57;;;4.10;99.90;;;;;;5057173;28;20683;-57
2023/11/03 03:54:33;;;;;;;10.20;5.03;;;4.10;99.90;;;;;;5058371;28;20725;-56
2023/11/03 03:56:59;;;;;;;15.63;5.20;;;4.10;99.90;;;;;;5055575;28;20428;-57
2023/11/03 03:59:25;;;;;;;9.93;5.13;;;4.10;99.90;;;;;;5054988;28;20475;-57
2023/11/03 04:01:51;;;;;;;8.73;5.80;;;4.10;99.90;;;;;;5058837;28;20174;-57
2023/11/03 04:04:16;;;;;;;11.03;5.67;;;4.10;99.90;;;;;;5050579;28;20201;-57
2023/11/03 04:06:45;;;;;;;13.50;7.10;;;4.10;99.90;;;;;;5054184;28;20213;-57
2023/11/03 04:09:10;;;;;;;12.47;6.90;;;4.20;99.90;;;;;;5058573;28;20238;-58
2023/11/03 04:11:36;;;;;;;9.47;6.03;;;4.20;99.90;;;;;;5061632;28;20451;-56
2023/11/03 04:14:02;;;;;;;10.57;6.77;;;4.20;99.90;;;;;;5066277;28;20205;-56
2023/11/03 04:16:37;;;;;;;11.87;6.30;;;4.20;99.90;;;;;;5060571;28;20302;-57
2023/11/03 04:19:03;;;;;;;11.47;6.80;;;4.20;99.90;;;;;;5068403;28;20296;-57
2023/11/03 04:21:29;;;;;;;10.57;5.77;;;4.20;99.90;;;;;;5061782;28;20433;-58
2023/11/03 04:23:55;;;;;;;12.43;6.50;;;4.30;99.90;;;;;;5061051;28;20860;-57
2023/11/03 04:26:22;;;;;;;8.57;5.60;;;4.30;99.90;;;;;;5065096;28;20182;-57
2023/11/03 04:28:47;;;;;;;10.27;5.90;;;4.30;99.90;;;;;;5065622;28;20431;-56
2023/11/03 04:31:13;;;;;;;7.70;4.90;;;4.30;99.90;;;;;;5061273;28;20531;-57
2023/11/03 04:33:39;;;;;;;10.83;5.57;;;4.30;99.90;;;;;;5059132;28;20203;-57
2023/11/03 04:36:05;;;;;;;9.50;5.17;;;4.30;99.90;;;;;;5063685;28;20250;-56
2023/11/03 04:38:30;;;;;;;10.00;5.67;;;4.40;99.90;;;;;;5063980;28;20206;-57
2023/11/03 04:40:56;;;;;;;19.17;5.73;;;4.40;99.90;;;;;;5064049;28;20524;-58
2023/11/03 04:43:22;;;;;;;9.17;6.73;;;4.40;99.90;;;;;;5062031;28;20263;-57
2023/11/03 04:45:47;;;;;;;10.13;6.27;;;4.40;99.90;;;;;;5062645;28;20185;-57
2023/11/03 04:48:13;;;;;;;10.37;6.20;;;4.40;99.90;;;;;;5066408;28;20220;-57
2023/11/03 04:50:38;;;;;;;11.40;7.10;;;4.40;99.90;;;;;;5057923;28;20179;-56
2023/11/03 04:53:04;;;;;;;9.63;5.67;;;4.40;99.90;;;;;;5056914;28;20198;-57
2023/11/03 04:55:30;;;;;;;12.13;6.27;;;4.50;99.90;;;;;;5048139;28;20182;-57
2023/11/03 04:57:56;;;;;;;9.40;5.03;;;4.50;99.90;;;;;;5061228;28;20208;-57
2023/11/03 05:00:22;;;;;;;13.10;7.10;;;4.50;99.90;;;;;;5064278;28;20176;-56
2023/11/03 05:02:49;;;;;;;11.50;6.93;;;4.50;99.90;;;;;;5058242;28;20821;-58
2023/11/03 05:05:15;;;;;;;10.33;6.50;;;4.50;99.90;;;;;;5061783;28;20190;-57
2023/11/03 05:07:41;;;;;;;10.33;6.30;;;4.50;99.90;;;;;;5059309;28;20428;-57
2023/11/03 05:10:07;;;;;;;10.03;6.87;;;4.50;99.90;;;;;;5064452;28;20413;-56
2023/11/03 05:12:33;;;;;;;14.93;8.63;;;4.50;99.90;;;;;;5062057;28;20474;-56
2023/11/03 05:14:59;;;;;;;12.80;7.10;;;4.50;99.90;;;;;;5062753;28;20427;-57
2023/11/03 05:17:24;;;;;;;12.53;8.20;;;4.50;99.90;;;;;;5057453;28;20254;-59
2023/11/03 05:19:51;;;;;;;11.13;7.20;;;4.50;99.90;;;;;;5063102;28;20199;-58
2023/11/03 05:22:17;;;;;;;11.57;8.30;;;4.50;99.90;;;;;;5060866;28;20254;-57
2023/11/03 05:24:44;;;;;;;16.90;7.07;;;4.50;99.90;;;;;;5053366;28;20421;-59
2023/11/03 05:27:09;;;;;;;11.60;6.53;;;4.50;99.90;;;;;;5053211;28;20843;-58
2023/11/03 05:29:37;;;;;;;8.53;5.77;;;4.50;99.90;;;;;;5056647;28;20649;-58
2023/11/03 05:32:03;;;;;;;12.43;6.00;;;4.50;99.90;;;;;;5059766;28;20649;-58
2023/11/03 05:34:29;;;;;;;10.53;6.50;;;4.50;99.90;;;;;;5054816;28;20448;-57
2023/11/03 05:36:54;;;;;;;12.37;5.50;;;4.50;99.90;;;;;;5054053;28;20193;-57
2023/11/03 05:39:21;;;;;;;9.13;5.97;;;4.50;99.90;;;;;;5055626;28;20210;-58
2023/11/03 05:41:47;;;;;;;13.03;7.60;;;4.50;99.90;;;;;;5058666;28;20269;-59
2023/11/03 05:44:13;;;;;;;10.30;6.43;;;4.60;99.90;;;;;;5063434;28;21033;-58
2023/11/03 05:46:39;;;;;;;13.17;7.67;;;4.60;99.90;;;;;;5061957;28;20424;-59
2023/11/03 05:49:04;;;;;;;11.07;6.87;;;4.60;99.90;;;;;;5061679;28;20194;-57
2023/11/03 05:51:31;;;;;;;14.37;7.27;;;4.60;99.90;;;;;;5059677;28;20197;-59
2023/11/03 05:53:56;;;;;;;7.77;6.07;;;4.60;99.90;;;;;;5063868;28;20194;-58
2023/11/03 05:56:22;;;;;;;12.10;6.00;;;4.60;99.90;;;;;;5066053;28;20481;-59
2023/11/03 05:58:47;;;;;;;10.10;5.63;;;4.60;99.90;;;;;;5068016;28;20194;-57
2023/11/03 06:01:13;;;;;;;7.60;4.90;;;4.70;99.90;;;;;;5064489;28;20316;-58
2023/11/03 06:03:39;;;;;;;8.80;4.60;;;4.70;99.90;;;;;;5069021;28;20268;-58
2023/11/03 06:06:06;;;;;;;6.33;4.30;;;4.70;99.90;;;;;;5069009;28;20677;-58
2023/11/03 06:08:32;;;;;;;5.03;3.77;;;4.70;99.90;;;;;;5064112;28;20185;-58
2023/11/03 06:10:57;;;;;;;9.90;3.87;;;4.70;99.90;;;;;;5066641;28;20797;-58
2023/11/03 06:13:23;;;;;;;4.87;3.53;;;4.70;99.90;;;;;;5068534;28;20194;-58
2023/11/03 06:15:49;;;;;;;3.53;3.00;;;4.70;99.90;;;;;;5069152;28;20182;-58
2023/11/03 06:18:14;;;;;;;5.80;3.53;;;4.70;99.90;;;;;;5067635;28;20194;-58
2023/11/03 06:20:40;;;;;;;8.80;3.83;;;4.70;99.90;;;;;;5068696;28;20170;-58
2023/11/03 06:23:06;;;;;;;4.47;3.40;;;4.70;99.90;;;;;;5069238;28;20190;-58
2023/11/03 06:25:31;;;;;;;6.60;3.70;;;4.70;99.90;;;;;;5066600;28;20194;-57
2023/11/03 06:27:57;;;;;;;6.90;3.40;;;4.70;99.90;;;;;;5066020;28;20496;-58
2023/11/03 06:30:23;;;;;;;10.67;3.70;;;4.70;99.90;;;;;;5069597;28;20170;-58
2023/11/03 06:32:50;;;;;;;8.60;3.60;;;4.70;99.90;;;;;;5068785;28;20251;-58
2023/11/03 06:35:15;;;;;;;3.70;3.40;;;4.70;99.90;;;;;;5070697;28;20581;-57
2023/11/03 06:37:41;;;;;;;4.80;3.80;;;4.70;99.90;;;;;;5066374;28;20448;-58
2023/11/03 06:40:10;;;;;;;7.67;4.50;;;4.70;99.90;;;;;;5066372;28;20186;-58
2023/11/03 06:42:40;;;;;;;9.50;5.93;;;4.80;99.90;;;;;;5058698;28;20245;-59
2023/11/03 06:45:09;;;;;;;10.33;4.40;;;4.80;99.90;;;;;;5063654;28;20905;-58
2023/11/03 06:47:35;;;;;;;8.73;5.00;;;4.80;99.90;;;;;;5064931;28;21175;-57
2023/11/03 06:50:03;;;;;;;7.83;4.27;;;4.80;99.90;;;;;;5065218;28;20876;-57
2023/11/03 06:52:29;;;;;;;5.30;3.70;;;4.80;99.90;;;;;;5068644;28;20413;-58
2023/11/03 06:54:55;;;;;;;6.00;4.20;;;4.80;99.90;;;;;;5066549;28;20535;-58
2023/11/03 06:57:20;;;;;;;5.83;3.23;;;4.80;99.90;;;;;;5068761;28;21071;-59
2023/11/03 06:59:46;;;;;;;5.70;3.20;;;4.90;99.90;;;;;;5066412;28;20213;-58
2023/11/03 07:02:12;;;;;;;6.63;3.57;;;4.90;99.90;;;;;;5061323;28;21404;-58
2023/11/03 07:04:37;;;;;;;9.40;4.57;;;4.90;99.90;;;;;;5066260;28;20182;-57
2023/11/03 07:07:04;;;;;;;5.77;3.77;;;4.90;99.90;;;;;;5065445;28;20166;-56
2023/11/03 07:09:30;;;;;;;8.97;3.77;;;4.90;99.90;;;;;;5061798;28;20573;-58
2023/11/03 07:11:56;;;;;;;4.83;3.70;;;5.00;99.90;;;;;;5066839;28;20505;-57
2023/11/03 07:14:24;;;;;;;6.93;3.20;;;5.00;99.90;;;;;;5068464;28;21143;-56
2023/11/03 07:16:52;;;;;;;5.57;3.80;;;5.00;99.90;;;;;;5065791;28;20310;-58
2023/11/03 07:19:20;;;;;;;6.80;3.20;;;5.00;99.90;;;;;;5064055;28;20460;-56
2023/11/03 07:21:50;;;;;;;4.20;3.17;;;5.10;99.90;;;;;;5065654;28;20437;-56
2023/11/03 07:24:17;;;;;;;9.97;3.43;;;5.10;99.90;;;;;;5066586;28;20520;-56
2023/11/03 07:26:44;;;;;;;9.90;4.07;;;5.10;99.90;;;;;;5065499;28;20427;-58
2023/11/03 07:29:10;;;;;;;4.53;3.27;;;5.10;99.90;;;;;;5062889;28;20433;-58
2023/11/03 07:31:38;;;;;;;4.80;2.70;;;5.10;99.90;;;;;;5067024;28;20919;-59
2023/11/03 07:34:04;;;;;;;9.50;3.00;;;5.10;99.90;;;;;;5065253;28;20935;-58
2023/11/03 07:36:30;;;;;;;5.90;3.00;;;5.10;99.90;;;;;;5063807;28;20420;-58
2023/11/03 07:38:58;;;;;;;7.87;3.60;;;5.20;99.90;;;;;;5065219;28;20532;-58
2023/11/03 07:41:23;;;;;;;9.87;3.07;;;5.20;99.90;;;;;;5064861;28;20170;-58
2023/11/03 07:43:49;;;;;;;7.67;3.20;;;5.20;99.90;;;;;;5060839;28;20455;-58
2023/11/03 07:46:15;;;;;;;9.13;3.23;;;5.20;99.90;;;;;;5064019;28;20167;-57
2023/11/03 07:48:40;;;;;;;6.37;3.57;;;5.30;99.90;;;;;;5064302;28;20771;-59
2023/11/03 07:51:06;;;;;;;6.00;3.13;;;5.20;99.90;;;;;;5067096;28;20649;-59
2023/11/03 07:53:31;;;;;;;6.87;2.97;;;5.30;99.90;;;;;;5061592;28;20218;-56
2023/11/03 07:55:58;;;;;;;5.20;3.40;;;5.30;99.90;;;;;;5066501;28;20816;-58
2023/11/03 07:58:24;;;;;;;10.83;3.60;;;5.30;99.90;;;;;;5065769;28;20202;-58
2023/11/03 08:00:50;;;;;;;6.43;3.43;;;5.40;99.90;;;;;;5063737;28;20520;-58
2023/11/03 08:03:16;;;;;;;6.60;3.13;;;5.40;99.90;;;;;;5064211;28;20543;-56
2023/11/03 08:05:42;;;;;;;8.17;3.70;;;5.40;99.90;;;;;;5067686;28;20730;-57
2023/11/03 08:08:10;;;;;;;6.27;3.10;;;5.40;99.90;;;;;;5064304;28;20461;-58
2023/11/03 08:10:36;;;;;;;8.40;3.67;;;5.40;99.90;;;;;;5059734;28;20672;-58
2023/11/03 08:13:01;;;;;;;8.07;3.77;;;5.50;99.90;;;;;;5064566;28;21022;-57
2023/11/03 08:15:27;;;;;;;11.50;3.03;;;5.50;99.90;;;;;;5061853;28;20181;-58
2023/11/03 08:17:53;;;;;;;3.87;2.33;;;5.50;99.90;;;;;;5065845;28;20190;-58
2023/11/03 08:20:19;;;;;;;9.77;3.43;;;5.60;99.90;;;;;;5061913;28;20423;-57
2023/11/03 08:22:48;;;;;;;7.60;2.63;;;5.60;99.90;;;;;;5062352;28;20668;-59
2023/11/03 08:25:13;;;;;;;3.53;2.20;;;5.60;99.90;;;;;;5065491;28;20641;-58
2023/11/03 08:27:39;;;;;;;15.80;2.70;;;5.60;99.90;;;;;;5060227;28;20486;-58
2023/11/03 08:30:08;;;;;;;6.50;2.60;;;5.60;99.90;;;;;;5062340;28;20170;-58
2023/11/03 08:32:35;;;;;;;3.87;2.00;;;5.60;99.90;;;;;;5065381;28;20641;-58
2023/11/03 08:35:03;;;;;;;12.60;2.80;;;5.70;99.90;;;;;;5064821;28;20900;-56
2023/11/03 08:37:30;;;;;;;3.23;2.47;;;5.70;99.90;;;;;;5063117;28;20919;-58
2023/11/03 08:39:55;;;;;;;9.33;3.03;;;5.70;99.90;;;;;;5059461;28;20530;-58
2023/11/03 08:42:22;;;;;;;5.40;2.70;;;5.70;99.90;;;;;;5065585;28;20425;-58
2023/11/03 08:44:47;;;;;;;7.93;3.03;;;5.70;99.90;;;;;;5061268;28;20682;-57
2023/11/03 08:47:15;;;;;;;7.33;2.60;;;5.70;99.90;;;;;;5065466;28;20489;-58
2023/11/03 08:49:41;;;;;;;5.80;1.93;;;5.80;99.90;;;;;;5063825;28;20596;-57
2023/11/03 08:52:07;;;;;;;6.03;2.30;;;5.80;99.90;;;;;;5065832;28;20523;-58
2023/11/03 08:54:33;;;;;;;8.40;2.23;;;5.80;99.90;;;;;;5061767;28;20539;-56
2023/11/03 08:56:59;;;;;;;7.43;2.60;;;5.80;99.90;;;;;;5063280;28;20228;-59
2023/11/03 08:59:24;;;;;;;4.60;2.80;;;5.90;99.90;;;;;;5058752;28;20212;-58
2023/11/03 09:01:55;;;;;;;4.67;2.27;;;5.90;99.90;;;;;;5064189;28;20760;-59
2023/11/03 09:04:22;;;;;;;6.90;2.33;;;6.00;99.90;;;;;;5063808;28;20613;-58
2023/11/03 09:06:48;;;;;;;8.27;2.40;;;6.00;99.90;;;;;;5046799;28;20421;-59
2023/11/03 09:09:14;;;;;;;12.60;2.27;;;6.00;99.90;;;;;;5062258;28;20458;-58
2023/11/03 09:11:41;;;;;;;5.83;2.17;;;6.00;99.90;;;;;;5060688;28;20252;-58
2023/11/03 09:14:07;;;;;;;10.20;2.20;;;6.10;99.90;;;;;;5063201;28;20226;-58
2023/11/03 09:16:36;;;;;;;4.77;2.20;;;6.10;99.90;;;;;;5068294;28;20801;-57
2023/11/03 09:19:02;;;;;;;5.27;1.87;;;6.10;99.90;;;;;;5066178;28;20494;-57
2023/11/03 09:21:29;;;;;;;4.33;2.10;;;6.10;99.90;;;;;;5058059;28;21887;-58
2023/11/03 09:23:55;;;;;;;4.37;2.00;;;6.10;99.90;;;;;;5063290;28;20214;-58
2023/11/03 09:26:20;;;;;;;6.07;2.17;;;6.10;99.90;;;;;;5066368;28;20990;-58
2023/11/03 09:28:49;;;;;;;5.33;1.97;;;6.20;99.90;;;;;;5062778;28;20178;-56
2023/11/03 09:31:15;;;;;;;3.93;1.83;;;6.20;99.90;;;;;;5061251;28;20669;-58
2023/11/03 09:33:42;;;;;;;2.30;2.03;;;6.30;99.90;;;;;;5063842;28;20465;-58
2023/11/03 09:36:09;;;;;;;5.87;2.37;;;6.30;99.90;;;;;;5065835;28;20424;-59
2023/11/03 09:38:35;;;;;;;4.77;2.37;;;6.30;99.90;;;;;;5064772;28;20487;-58
2023/11/03 09:41:01;;;;;;;2.90;2.10;;;6.30;99.90;;;;;;5066502;28;20479;-59
2023/11/03 09:43:29;;;;;;;5.03;1.90;;;6.30;99.90;;;;;;5063328;28;20501;-58
2023/11/03 09:45:55;;;;;;;5.83;1.97;;;6.40;99.90;;;;;;5068586;28;20961;-58
2023/11/03 09:48:22;;;;;;;2.27;1.90;;;6.40;99.90;;;;;;5065964;28;20433;-58
2023/11/03 09:50:48;;;;;;;3.00;1.90;;;6.40;99.90;;;;;;5065742;28;20186;-58
2023/11/03 09:53:20;;;;;;;1.83;1.60;;;6.40;99.90;;;;;;5067659;28;20475;-58
2023/11/03 09:55:46;;;;;;;6.77;2.70;;;6.40;99.90;;;;;;5068180;28;20436;-58
2023/11/03 09:58:12;;;;;;;7.93;2.30;;;6.40;99.90;;;;;;5069568;28;20471;-58
2023/11/03 10:00:37;;;;;;;9.87;2.97;;;6.50;99.90;;;;;;5066490;28;20202;-58
2023/11/03 10:03:04;;;;;;;7.43;3.17;;;6.50;99.90;;;;;;5067776;28;20237;-57
2023/11/03 10:05:30;;;;;;;4.17;2.00;;;6.50;99.90;;;;;;5066993;28;20170;-57
2023/11/03 10:08:01;;;;;;;4.00;2.20;;;6.50;99.90;;;;;;5069085;28;20462;-58
2023/11/03 10:10:33;;;;;;;2.87;1.90;;;6.50;99.90;;;;;;5068812;28;20454;-58
2023/11/03 10:12:59;;;;;;;2.47;1.40;;;6.50;99.90;;;;;;5062440;28;20460;-58
2023/11/03 10:15:26;;;;;;;4.67;1.90;;;6.60;99.90;;;;;;5070091;28;20504;-58
2023/11/03 10:17:53;;;;;;;4.47;1.43;;;6.60;99.90;;;;;;5066603;28;20206;-57
2023/11/03 10:20:20;;;;;;;1.90;1.33;;;6.60;99.90;;;;;;5070414;28;20524;-59
2023/11/03 10:22:47;;;;;;;2.20;1.20;;;6.60;99.90;;;;;;5066907;28;20456;-58
2023/11/03 10:25:14;;;;;;;2.97;1.37;;;6.60;99.90;;;;;;5067557;28;20412;-59
2023/11/03 10:27:39;;;;;;;3.87;1.50;;;6.70;99.90;;;;;;5065772;28;20930;-58
2023/11/03 10:30:06;;;;;;;1.73;1.20;;;6.60;99.90;;;;;;5067530;28;20486;-58
2023/11/03 10:32:33;;;;;;;3.77;1.10;;;6.70;99.90;;;;;;5067797;28;20170;-57
2023/11/03 10:35:01;;;;;;;3.20;1.20;;;6.70;99.90;;;;;;5068506;28;20420;-58
2023/11/03 10:37:29;;;;;;;3.67;1.20;;;6.70;99.90;;;;;;5066907;28;20795;-58
2023/11/03 10:39:54;;;;;;;3.20;1.20;;;6.70;99.90;;;;;;5066733;28;20826;-58
2023/11/03 10:42:23;;;;;;;4.00;1.20;;;6.70;99.90;;;;;;5065542;28;20519;-59
2023/11/03 10:44:53;;;;;;;8.00;1.30;;;6.70;99.90;;;;;;5066271;28;20226;-59
2023/11/03 10:47:26;;;;;;;1.00;1.00;;;6.70;99.90;;;;;;5065014;28;20420;-58
2023/11/03 10:49:57;;;;;;;2.20;1.10;;;6.70;99.90;;;;;;5068804;28;20489;-59
2023/11/03 10:52:28;;;;;;;5.80;1.13;;;6.80;99.90;;;;;;5065438;28;20435;-57
2023/11/03 10:55:06;;;;;;;2.50;1.20;;;6.80;99.90;;;;;;5066138;28;20428;-58
2023/11/03 10:57:33;;;;;;;3.40;1.10;;;6.80;99.90;;;;;;5062650;28;20493;-57
2023/11/03 11:00:24;;;;;;;2.20;1.30;;;6.90;99.90;;;;;;5066763;28;20432;-59
2023/11/03 11:03:00;;;;;;;2.40;1.17;;;6.90;99.90;;;;;;5066430;28;20521;-58
2023/11/03 11:05:28;;;;;;;3.07;1.00;;;6.80;99.90;;;;;;5066871;28;20439;-58
2023/11/03 11:08:02;;;;;;;4.43;1.30;;;6.80;99.90;;;;;;5065599;28;21051;-59
2023/11/03 11:10:41;;;;;;;3.00;2.27;;;6.80;99.90;;;;;;5068949;28;20521;-58
2023/11/03 11:13:17;;;;;;;2.50;1.47;;;6.80;99.90;;;;;;5073457;28;20456;-59
2023/11/03 11:16:02;;;;;;;5.67;2.30;;;6.80;99.90;;;;;;5064530;28;21111;-58
2023/11/03 11:18:31;;;;;;;1.30;1.20;;;6.80;99.90;;;;;;5064976;28;20929;-58
2023/11/03 11:21:05;;;;;;;1.40;1.20;;;6.80;99.90;;;;;;5064182;28;20420;-59
2023/11/03 11:23:33;;;;;;;1.47;1.00;;;6.80;99.90;;;;;;5064515;28;20817;-57
2023/11/03 11:26:06;;;;;;;1.30;1.10;;;6.90;99.90;;;;;;5070658;28;20450;-58
2023/11/03 11:28:38;;;;;;;1.10;1.00;;;6.90;99.90;;;;;;5062197;28;20958;-57
2023/11/03 11:31:22;;;;;;;1.30;1.20;;;7.00;99.90;;;;;;5068895;28;20433;-57
2023/11/03 11:34:12;;;;;;;1.90;1.20;;;7.00;99.90;;;;;;5064790;28;20850;-57
2023/11/03 11:36:41;;;;;;;2.33;1.03;;;7.10;99.90;;;;;;5063786;28;20504;-59
2023/11/03 11:39:13;;;;;;;2.40;1.40;;;7.20;99.90;;;;;;5064013;28;20517;-58
2023/11/03 11:41:44;;;;;;;1.00;1.00;;;7.30;99.90;;;;;;5057416;28;20529;-57
2023/11/03 11:44:10;;;;;;;3.90;1.20;;;7.30;99.90;;;;;;5068497;28;20452;-59
2023/11/03 11:46:40;;;;;;;1.40;1.20;;;7.30;99.90;;;;;;5068750;28;20518;-59
2023/11/03 11:49:10;;;;;;;1.57;1.40;;;7.30;99.90;;;;;;5055722;28;20512;-57
2023/11/03 11:51:36;;;;;;;1.83;1.03;;;7.30;99.90;;;;;;5060613;28;20429;-57
2023/11/03 11:54:03;;;;;;;1.97;1.77;;;7.30;99.90;;;;;;5059206;28;20524;-58
2023/11/03 11:56:29;;;;;;;1.10;1.07;;;7.30;99.90;;;;;;5057895;28;20449;-58
2023/11/03 11:58:55;;;;;;;1.73;1.20;;;7.30;99.90;;;;;;5060976;28;20469;-58
2023/11/03 12:01:24;;;;;;;2.07;1.23;;;7.30;99.90;;;;;;5058080;28;20270;-58
2023/11/03 12:03:52;;;;;;;3.27;1.80;;;7.30;99.90;;;;;;5060665;28;20987;-57
2023/11/03 12:06:18;;;;;;;7.83;3.37;;;7.30;99.90;;;;;;5061106;28;21022;-56
2023/11/03 12:08:44;;;;;;;4.10;2.67;;;7.30;99.90;;;;;;5060890;28;20436;-58
2023/11/03 12:11:09;;;;;;;1.60;1.40;;;7.20;99.90;;;;;;5055554;28;20970;-58
2023/11/03 12:13:36;;;;;;;3.83;1.17;;;7.20;99.90;;;;;;5059757;28;20194;-59
2023/11/03 12:16:02;;;;;;;1.40;1.30;;;7.20;99.90;;;;;;5057663;28;20189;-57
2023/11/03 12:18:27;;;;;;;2.23;1.10;;;7.20;99.90;;;;;;5060096;28;20464;-59
2023/11/03 12:21:03;;;;;;;3.37;1.20;;;7.10;99.90;;;;;;5062518;28;20428;-58
2023/11/03 12:23:30;;;;;;;5.77;1.57;;;7.10;99.90;;;;;;5062666;28;20200;-59
2023/11/03 12:26:01;;;;;;;3.77;1.50;;;7.20;99.90;;;;;;5066293;28;20416;-57
2023/11/03 12:28:30;;;;;;;2.37;1.30;;;7.10;99.90;;;;;;5065317;28;20440;-58
2023/11/03 12:30:59;;;;;;;2.60;1.37;;;7.10;99.90;;;;;;5060851;28;20524;-58
2023/11/03 12:33:28;;;;;;;4.33;1.30;;;7.10;99.90;;;;;;5060105;28;20543;-58
2023/11/03 12:35:57;;;;;;;3.33;1.60;;;7.10;99.90;;;;;;5065139;28;20424;-58
2023/11/03 12:38:23;;;;;;;2.27;1.40;;;7.10;99.90;;;;;;5059167;28;20457;-58
2023/11/03 12:40:50;;;;;;;2.80;1.53;;;7.10;99.90;;;;;;5065982;28;20445;-57
2023/11/03 12:43:17;;;;;;;4.27;2.23;;;7.10;99.90;;;;;;5063491;28;20437;-58
2023/11/03 12:45:47;;;;;;;5.17;1.63;;;7.10;99.90;;;;;;5060380;28;20470;-58
2023/11/03 12:48:19;;;;;;;4.93;3.07;;;7.10;99.90;;;;;;5062505;28;20425;-58
2023/11/03 12:50:52;;;;;;;7.33;4.40;;;7.10;99.90;;;;;;5065742;28;20433;-59